Time;durP1;ratioP1;P1;durP2;ratioP2;P2;SDS_P1;SDS_P2;PMS_P1;PMS_P2;Temp;Humidity;BMP_temperature;BMP_pressure;BME280_temperature;BME280_humidity;BME280_pressure;Samples;Min_cycle;Max_cycle;Signal;HPM_P1;HPM_P2
2022/05/04 04:57:49;;;;;;;2.47;2.27;;;;;;;19.61;51.31;97426.16;1541558;23;20479;-92
2022/05/04 05:00:30;;;;;;;1.90;1.80;;;;;;;14.70;50.94;96575.13;4901155;29;20199;-93
2022/05/04 05:03:11;;;;;;;2.10;2.00;;;;;;;14.76;50.79;96572.84;4875428;29;20216;-95
2022/05/04 05:05:55;;;;;;;2.40;2.20;;;;;;;16.10;51.28;96847.53;4860792;29;20211;-94
2022/05/04 05:08:35;;;;;;;2.10;2.00;;;;;;;17.65;50.96;97137.94;4874704;29;20218;-95
2022/05/04 05:11:10;;;;;;;2.40;2.20;;;;;;;16.00;50.86;96817.56;4874636;29;20210;-94
2022/05/04 06:07:29;;;;;;;3.30;3.00;;;;;;;18.21;51.04;97188.38;5512326;23;20202;-95
2022/05/04 06:10:17;;;;;;;4.40;2.60;;;;;;;17.82;51.20;97147.06;4932801;29;20186;-95
2022/05/04 06:12:59;;;;;;;3.20;2.90;;;;;;;16.05;51.01;96827.88;4902188;29;20166;-94
2022/05/04 06:15:51;;;;;;;3.17;2.77;;;;;;;14.25;51.22;96548.84;4919129;29;20169;-94
2022/05/04 06:18:31;;;;;;;3.10;2.60;;;;;;;19.67;51.34;97438.22;4916248;29;20198;-93
2022/05/04 06:21:12;;;;;;;4.20;2.60;;;;;;;16.77;51.13;96954.16;4902082;29;20194;-93
2022/05/04 06:23:53;;;;;;;6.70;3.17;;;;;;;18.37;51.18;97287.38;4901306;29;20161;-93
2022/05/04 06:26:33;;;;;;;2.97;2.73;;;;;;;18.61;51.92;97284.84;4900292;29;20182;-92
2022/05/04 06:29:00;;;;;;;6.30;3.00;;;;;;;14.15;51.12;96516.34;4910331;29;20226;-95
2022/05/04 06:34:28;;;;;;;4.77;2.80;;;;;;;13.89;51.30;96470.63;4926127;28;20212;-93
2022/05/04 06:37:06;;;;;;;6.90;2.87;;;;;;;17.32;51.33;97106.13;4910270;23;20198;-94
2022/05/04 06:39:47;;;;;;;4.47;3.10;;;;;;;16.29;50.90;96900.66;4882128;29;20179;-94
2022/05/04 06:42:26;;;;;;;5.60;3.00;;;;;;;17.21;51.00;97101.44;4894983;29;20215;-94
2022/05/04 06:44:59;;;;;;;4.40;3.00;;;;;;;15.67;51.17;96797.63;4878415;29;20266;-94
2022/05/04 06:47:40;;;;;;;3.20;2.87;;;;;;;15.49;50.93;96725.97;4881703;29;20178;-95
2022/05/04 06:50:07;;;;;;;3.10;2.90;;;;;;;15.98;50.96;96841.09;4891265;29;20218;-94
2022/05/04 06:52:48;;;;;;;3.17;2.87;;;;;;;18.10;50.21;97254.09;4880987;29;20255;-94
2022/05/04 06:55:14;;;;;;;3.10;2.90;;;;;;;16.18;51.56;96874.06;4875968;29;20235;-95
2022/05/04 06:57:56;;;;;;;3.33;3.03;;;;;;;14.24;50.76;96510.88;4879316;29;20186;-94
2022/05/04 07:00:36;;;;;;;3.47;2.60;;;;;;;14.48;51.09;96618.03;4880115;29;20179;-95
2022/05/04 07:03:03;;;;;;;3.20;2.90;;;;;;;17.88;51.12;97228.63;4875610;29;20211;-93
2022/05/04 07:05:44;;;;;;;4.37;2.80;;;;;;;15.92;51.23;96801.19;4894069;29;20239;-94
2022/05/04 07:08:18;;;;;;;3.30;3.00;;;;;;;16.18;51.46;96863.03;4878617;29;20182;-94
2022/05/04 07:10:47;;;;;;;3.73;3.10;;;;;;;18.37;51.65;97253.38;4891413;29;20209;-93
2022/05/04 07:13:27;;;;;;;3.50;3.20;;;;;;;15.53;51.03;96801.25;4880325;29;20198;-94
2022/05/04 07:16:00;;;;;;;3.20;2.90;;;;;;;14.62;51.70;96563.81;4892377;29;20182;-94
2022/05/04 07:18:40;;;;;;;3.20;2.67;;;;;;;16.09;51.63;96870.28;4880973;29;20198;-94
2022/05/04 07:21:18;;;;;;;3.07;2.80;;;;;;;14.84;51.55;96652.44;4893153;29;20235;-94
2022/05/04 07:23:58;;;;;;;3.40;3.07;;;;;;;16.12;52.38;96875.47;4880503;29;20202;-95
2022/05/04 07:26:38;;;;;;;2.87;2.67;;;;;;;18.01;51.28;97174.94;4880104;29;20221;-94
2022/05/04 07:29:18;;;;;;;2.60;2.40;;;;;;;16.14;51.10;96863.72;4880662;29;20218;-94
2022/05/04 07:31:59;;;;;;;3.17;2.60;;;;;;;15.70;52.30;96791.03;4893189;29;20222;-95
2022/05/04 07:34:26;;;;;;;3.97;2.90;;;;;;;15.65;50.64;96819.47;4874821;29;20242;-94
2022/05/04 07:37:04;;;;;;;9.87;2.83;;;;;;;13.49;50.41;96416.69;4893495;29;20198;-94
2022/05/04 07:42:30;;;;;;;2.60;2.40;;;;;;;16.11;51.32;96863.59;4895368;29;20166;-95
2022/05/04 07:45:12;;;;;;;2.80;2.60;;;;;;;16.59;51.16;96945.84;4891844;29;20257;-94
2022/05/04 07:47:53;;;;;;;3.73;2.43;;;;;;;14.41;51.88;96595.81;4893552;29;20225;-94
2022/05/04 07:50:33;;;;;;;3.70;2.70;;;;;;;18.41;51.29;97289.22;4892310;29;20265;-94
2022/05/04 07:55:49;;;;;;;3.20;2.80;;;;;;;16.14;51.10;96838.38;5362951;23;20236;-94
2022/05/04 08:06:33;;;;;;;2.67;2.47;;;;;;;17.95;51.03;97156.03;4908580;29;20221;-88
2022/05/04 08:09:00;;;;;;;2.70;2.50;;;;;;;19.11;51.06;97367.38;4865001;29;20292;-86
2022/05/04 08:11:26;;;;;;;3.20;2.90;;;;;;;19.31;51.20;97391.06;4879283;29;20249;-89
2022/05/04 08:13:53;;;;;;;2.60;2.40;;;;;;;18.60;51.31;97286.56;4885897;29;20655;-89
2022/05/04 08:16:26;;;;;;;2.63;2.43;;;;;;;18.53;50.61;97337.16;4862286;29;20265;-88
2022/05/04 08:18:52;;;;;;;2.60;2.40;;;;;;;19.67;51.08;97466.28;4883888;29;20206;-89
2022/05/04 08:21:19;;;;;;;3.77;2.80;;;;;;;19.67;51.06;97466.28;4890788;29;20197;-89
2022/05/04 08:23:46;;;;;;;2.73;2.40;;;;;;;19.66;51.03;97467.09;4863482;29;20229;-87
2022/05/04 08:26:13;;;;;;;3.43;2.70;;;;;;;18.00;51.01;97180.81;4878880;29;20270;-87
2022/05/04 08:28:40;;;;;;;2.97;2.60;;;;;;;18.62;51.14;97317.16;4872421;29;20207;-90
2022/05/04 08:31:06;;;;;;;2.77;2.57;;;;;;;17.95;50.27;97166.19;4872829;29;20478;-89
2022/05/04 08:33:35;;;;;;;2.50;2.30;;;;;;;18.53;50.99;97263.38;4894959;29;20210;-89
2022/05/04 08:36:01;;;;;;;2.70;2.50;;;;;;;19.66;51.07;97467.94;4885521;29;20248;-89
2022/05/04 08:38:28;;;;;;;2.70;2.50;;;;;;;17.83;51.09;97153.03;4887786;29;20250;-88
2022/05/04 08:40:55;;;;;;;3.30;2.63;;;;;;;16.64;50.98;96965.47;4875274;29;20269;-89
2022/05/04 08:43:24;;;;;;;2.83;2.63;;;;;;;17.89;51.19;97155.81;4881337;29;20231;-89
2022/05/04 08:45:51;;;;;;;2.43;2.23;;;;;;;19.12;50.88;97365.69;4882514;29;20210;-88
2022/05/04 08:48:19;;;;;;;4.83;2.73;;;;;;;19.45;51.03;97428.94;4889674;29;21165;-89
2022/05/04 08:50:45;;;;;;;3.57;2.30;;;;;;;17.73;51.04;97173.78;4884287;29;20566;-87
2022/05/04 08:53:12;;;;;;;2.47;2.27;;;;;;;19.09;51.13;97358.81;4868911;29;20262;-87
2022/05/04 08:55:39;;;;;;;3.67;2.23;;;;;;;19.69;51.03;97464.66;4873803;29;20294;-89
2022/05/04 08:58:06;;;;;;;2.70;2.50;;;;;;;18.62;51.18;97281.53;4917414;29;20269;-87
2022/05/04 09:00:32;;;;;;;2.67;2.47;;;;;;;17.24;51.07;97038.06;4903165;29;20217;-88
2022/05/04 09:02:59;;;;;;;2.73;2.53;;;;;;;19.68;50.79;97463.78;4886830;29;20506;-88
2022/05/04 09:05:27;;;;;;;2.40;2.20;;;;;;;19.68;51.12;97462.91;4871110;29;20669;-89
2022/05/04 09:07:55;;;;;;;2.60;2.40;;;;;;;18.85;50.92;97346.84;4901727;29;20257;-87
2022/05/04 09:10:32;;;;;;;2.60;2.40;;;;;;;18.38;51.13;97233.13;4886200;29;20702;-87
2022/05/04 09:13:02;;;;;;;2.70;2.50;;;;;;;18.92;51.12;97323.38;4887954;29;20222;-89
2022/05/04 09:15:30;;;;;;;2.73;2.53;;;;;;;18.69;51.01;97280.91;4872007;29;20708;-88
2022/05/04 09:18:02;;;;;;;2.80;2.60;;;;;;;19.54;51.25;97424.19;4887054;29;20229;-88
2022/05/04 09:20:49;;;;;;;2.30;2.20;;;;;;;14.06;50.87;96488.19;4871149;29;20601;-88
2022/05/04 09:23:29;;;;;;;2.70;2.50;;;;;;;19.69;50.80;97469.75;4882719;29;20672;-88
2022/05/04 09:25:56;;;;;;;2.60;2.40;;;;;;;19.69;51.24;97441.72;4903310;29;20201;-88
2022/05/04 09:28:24;;;;;;;2.40;2.20;;;;;;;17.50;51.03;97104.31;4919392;29;20213;-89
2022/05/04 09:31:20;;;;;;;2.63;2.43;;;;;;;18.94;51.12;97316.63;4864943;29;20847;-87
2022/05/04 09:34:06;;;;;;;2.80;2.60;;;;;;;18.33;50.96;97208.31;4890107;29;20218;-88
2022/05/04 09:36:37;;;;;;;2.60;2.40;;;;;;;18.07;50.96;97209.88;4868381;29;20250;-87
2022/05/04 09:45:14;;;;;;;3.70;2.47;;;;;;;19.04;51.20;97319.56;4890947;29;20272;-88
2022/05/04 09:47:45;;;;;;;2.43;2.20;;;;;;;17.59;50.99;97069.09;4892884;29;20262;-88
2022/05/04 09:50:13;;;;;;;2.40;2.20;;;;;;;19.02;51.08;97328.84;4882606;29;20277;-88
2022/05/04 09:52:44;;;;;;;2.40;2.20;;;;;;;18.96;51.18;97294.66;4890882;29;20222;-88
2022/05/04 09:55:24;;;;;;;3.20;2.50;;;;;;;17.59;51.03;97064.00;4873852;29;20708;-88
2022/05/04 09:57:53;;;;;;;2.73;2.40;;;;;;;18.15;51.06;97168.66;4882177;29;20676;-89
2022/05/04 10:00:21;;;;;;;2.23;2.13;;;;;;;18.50;51.33;97207.28;4851634;29;20202;-89
2022/05/04 10:02:48;;;;;;;2.80;2.30;;;;;;;17.89;51.08;97120.22;4867442;29;20207;-88
2022/05/04 10:05:16;;;;;;;2.37;2.20;;;;;;;19.68;51.18;97428.09;4851511;29;20788;-87
2022/05/04 10:07:42;;;;;;;2.10;1.90;;;;;;;17.20;51.01;97015.94;4867199;29;20305;-89
2022/05/04 10:10:10;;;;;;;2.33;2.23;;;;;;;18.27;51.08;97173.34;4851768;29;20238;-90
2022/05/04 10:12:41;;;;;;;2.50;2.30;;;;;;;18.67;51.08;97226.53;4851556;29;20724;-87
2022/05/04 10:15:13;;;;;;;2.43;2.23;;;;;;;18.77;50.95;97274.44;4853090;29;20219;-88
2022/05/04 10:17:55;;;;;;;2.23;2.10;;;;;;;19.68;51.05;97394.94;4852475;29;20645;-88
2022/05/04 10:20:27;;;;;;;2.40;2.20;;;;;;;18.75;50.99;97231.13;4896104;29;20233;-89
2022/05/04 10:22:56;;;;;;;2.60;2.40;;;;;;;18.60;51.07;97206.78;4901105;29;20288;-88
2022/05/04 10:25:24;;;;;;;2.27;2.17;;;;;;;18.70;51.07;97221.56;4901996;29;20230;-86
2022/05/04 10:27:52;;;;;;;2.37;2.17;;;;;;;17.49;51.05;97005.19;4886779;29;20216;-89
2022/05/04 10:30:33;;;;;;;2.63;2.43;;;;;;;17.15;51.10;96954.81;4887240;29;20277;-90
2022/05/04 10:33:06;;;;;;;2.70;2.10;;;;;;;19.67;51.10;97380.47;4904038;29;20288;-87
2022/05/04 10:35:44;;;;;;;1.93;1.83;;;;;;;17.12;50.91;96948.75;4887223;29;20226;-87
2022/05/04 10:38:25;;;;;;;2.33;2.23;;;;;;;19.68;51.27;97386.41;4903458;29;20209;-87
2022/05/04 10:41:00;;;;;;;2.00;1.90;;;;;;;19.43;51.05;97356.69;4920119;29;20202;-87
2022/05/04 10:43:47;;;;;;;2.33;2.13;;;;;;;19.43;51.06;97343.94;4902837;29;20232;-87
2022/05/04 10:46:20;;;;;;;3.03;2.30;;;;;;;18.19;51.01;97139.13;4903437;29;20233;-88
2022/05/04 10:48:55;;;;;;;2.20;2.10;;;;;;;19.67;51.17;97367.72;4903238;29;20216;-86
2022/05/04 10:51:24;;;;;;;2.40;2.20;;;;;;;18.73;50.96;97206.41;4919698;29;20263;-87
2022/05/04 10:54:08;;;;;;;2.07;1.97;;;;;;;18.93;51.04;97264.84;4902518;29;20225;-86
2022/05/04 10:56:42;;;;;;;2.13;2.00;;;;;;;18.27;51.08;97128.41;4872436;29;20190;-90
2022/05/04 10:59:09;;;;;;;2.40;2.30;;;;;;;17.25;50.75;96966.16;4900029;29;20232;-88
2022/05/04 11:01:39;;;;;;;2.30;2.13;;;;;;;19.19;51.07;97281.03;4894628;29;20202;-88
2022/05/04 11:04:15;;;;;;;2.13;2.03;;;;;;;17.03;50.91;96906.13;4882367;29;20222;-88
2022/05/04 11:07:07;;;;;;;2.40;2.20;;;;;;;19.69;51.20;97362.69;4867711;29;20194;-87
2022/05/04 11:09:42;;;;;;;2.30;2.17;;;;;;;19.68;51.15;97359.25;4900445;29;20217;-88
2022/05/04 11:12:10;;;;;;;2.17;2.07;;;;;;;18.12;50.92;97106.66;4901078;29;20217;-88
2022/05/04 11:14:36;;;;;;;2.40;2.20;;;;;;;17.83;51.15;97082.69;4901500;29;20252;-88
2022/05/04 11:17:14;;;;;;;2.27;2.00;;;;;;;19.35;51.11;97321.53;4885624;29;20209;-87
2022/05/04 11:19:46;;;;;;;2.13;2.03;;;;;;;18.63;51.14;97191.63;4917641;29;20226;-88
2022/05/04 11:22:13;;;;;;;2.10;1.90;;;;;;;19.68;51.12;97372.00;4887881;29;20205;-88
2022/05/04 11:25:02;;;;;;;1.90;1.80;;;;;;;19.68;51.21;97368.56;4890679;29;20233;-89
2022/05/04 11:27:29;;;;;;;1.90;1.80;;;;;;;18.51;51.21;97165.75;4916242;29;20683;-88
2022/05/04 11:29:59;;;;;;;2.03;1.90;;;;;;;19.32;51.03;97306.16;4897368;29;20289;-87
2022/05/04 11:32:26;;;;;;;2.40;2.20;;;;;;;17.97;51.05;97075.59;4889150;29;20222;-89
2022/05/04 11:34:55;;;;;;;2.10;2.00;;;;;;;18.62;51.26;97188.19;4884189;29;20229;-89
2022/05/04 11:37:23;;;;;;;1.97;1.87;;;;;;;17.84;50.77;97040.38;4887744;29;20229;-88
2022/05/04 11:39:49;;;;;;;2.80;1.97;;;;;;;18.96;51.00;97228.44;4888467;29;20240;-88
2022/05/04 11:42:16;;;;;;;2.20;2.10;;;;;;;18.74;50.94;97186.09;4881337;29;20622;-87
2022/05/04 11:44:47;;;;;;;2.20;2.10;;;;;;;19.67;51.08;97342.22;4878288;29;20308;-89
2022/05/04 11:47:14;;;;;;;2.50;2.30;;;;;;;18.31;51.07;97103.94;4892091;29;20573;-88
2022/05/04 11:49:41;;;;;;;2.10;2.00;;;;;;;19.67;50.90;97349.88;4884324;29;20241;-87
2022/05/04 11:52:08;;;;;;;1.90;1.80;;;;;;;18.26;50.96;97097.81;4898535;29;20693;-88
2022/05/04 11:54:35;;;;;;;2.00;1.90;;;;;;;17.96;51.45;97045.88;4880015;29;20232;-88
2022/05/04 11:57:09;;;;;;;2.20;2.10;;;;;;;19.52;51.02;97303.47;4868483;29;20238;-87
2022/05/04 11:59:36;;;;;;;1.80;1.70;;;;;;;18.51;51.01;97132.66;4865757;29;20202;-88
2022/05/04 12:02:03;;;;;;;2.40;2.20;;;;;;;17.24;51.13;96906.03;4867942;29;20280;-87
2022/05/04 12:04:30;;;;;;;1.83;1.73;;;;;;;19.68;51.03;97328.66;4866927;29;20230;-88
2022/05/04 12:06:57;;;;;;;1.97;1.87;;;;;;;17.65;51.13;96970.22;4887534;29;20205;-88
2022/05/04 12:09:23;;;;;;;1.80;1.70;;;;;;;19.69;51.08;97322.72;4879735;29;20206;-88
2022/05/04 12:11:50;;;;;;;2.30;2.10;;;;;;;17.59;51.01;96953.91;4880253;29;20229;-88
2022/05/04 12:14:17;;;;;;;2.10;2.00;;;;;;;19.69;51.13;97355.88;4878501;29;20237;-88
2022/05/04 12:16:44;;;;;;;2.33;2.03;;;;;;;19.69;51.05;97309.97;4880384;29;20285;-88
2022/05/04 12:19:11;;;;;;;2.00;1.90;;;;;;;19.15;51.07;97218.94;4865491;29;20226;-88
2022/05/04 12:21:38;;;;;;;2.17;2.07;;;;;;;19.70;51.09;97305.75;4868490;29;20257;-88
2022/05/04 12:24:05;;;;;;;2.30;2.20;;;;;;;17.92;51.04;97016.09;4886968;29;20304;-87
2022/05/04 12:26:32;;;;;;;2.20;2.10;;;;;;;17.34;51.03;96893.72;4897920;29;20261;-87
2022/05/04 12:34:30;;;;;;;2.50;2.30;;;;;;;18.95;51.20;97157.97;4889602;29;20257;-88
2022/05/04 12:37:02;;;;;;;1.80;1.70;;;;;;;19.68;51.09;97285.31;4887286;29;20309;-89
2022/05/04 12:39:29;;;;;;;2.20;2.10;;;;;;;18.22;51.14;97024.78;4877553;29;20281;-89
2022/05/04 12:41:59;;;;;;;2.30;2.10;;;;;;;17.12;50.64;96837.06;4896155;29;20656;-85
2022/05/04 12:44:26;;;;;;;1.70;1.60;;;;;;;13.17;51.35;96195.06;4902159;29;20220;-88
2022/05/04 12:46:53;;;;;;;2.00;1.90;;;;;;;14.60;51.05;96504.78;4882564;29;20262;-87
2022/05/04 12:49:21;;;;;;;1.90;1.80;;;;;;;13.97;51.18;96337.94;4889101;29;20228;-88
2022/05/04 12:51:47;;;;;;;2.10;1.90;;;;;;;10.37;50.83;95761.16;4878026;29;20242;-88
2022/05/04 12:54:17;;;;;;;2.10;1.90;;;;;;;17.24;51.07;96929.75;4914976;29;20333;-88
2022/05/04 12:56:46;;;;;;;2.10;2.00;;;;;;;16.11;50.74;96724.22;4880000;29;20258;-88
2022/05/04 12:59:17;;;;;;;2.00;1.90;;;;;;;16.73;50.99;96747.69;4900223;29;20261;-87
2022/05/04 13:01:44;;;;;;;2.00;1.90;;;;;;;15.85;50.92;96632.03;4890436;29;20251;-88
2022/05/04 13:04:13;;;;;;;2.10;1.93;;;;;;;16.24;51.08;96731.47;4880871;29;20218;-85
2022/05/04 13:06:40;;;;;;;1.90;1.80;;;;;;;14.37;50.77;96412.00;4903465;29;20675;-88
2022/05/04 13:09:07;;;;;;;1.97;1.87;;;;;;;19.62;51.11;97241.78;4902961;29;20231;-88
2022/05/04 13:11:34;;;;;;;1.90;1.80;;;;;;;12.31;50.84;96111.63;4886517;29;20225;-88
2022/05/04 13:14:01;;;;;;;2.17;1.93;;;;;;;12.14;51.00;95988.34;4887214;29;20233;-88
2022/05/04 13:16:33;;;;;;;1.77;1.67;;;;;;;13.26;50.78;96153.38;4902929;29;20660;-88
2022/05/04 13:19:00;;;;;;;1.90;1.80;;;;;;;14.10;51.00;96297.22;4902667;29;20257;-88
2022/05/04 13:21:27;;;;;;;5.53;2.20;;;;;;;19.31;51.22;97193.19;4902393;29;20295;-89
2022/05/04 13:24:00;;;;;;;1.90;1.80;;;;;;;10.80;50.91;95856.78;4918698;29;20672;-89
2022/05/04 13:26:27;;;;;;;1.97;1.87;;;;;;;18.91;51.07;97162.06;4886173;29;20297;-88
2022/05/04 13:28:55;;;;;;;1.90;1.80;;;;;;;18.95;50.60;97168.16;4886961;29;20288;-88
2022/05/04 13:31:22;;;;;;;2.10;2.00;;;;;;;12.17;50.95;96052.25;4901938;29;20589;-88
2022/05/04 13:33:49;;;;;;;1.70;1.60;;;;;;;10.68;50.83;95749.13;4919295;29;20657;-87
2022/05/04 13:36:16;;;;;;;1.90;1.80;;;;;;;18.20;51.09;97047.63;4886700;29;20230;-88
2022/05/04 13:38:42;;;;;;;2.00;1.90;;;;;;;14.71;50.92;96523.75;4886959;29;20213;-88
2022/05/04 13:41:10;;;;;;;1.80;1.70;;;;;;;12.48;50.79;96173.66;4902720;29;20237;-88
2022/05/04 13:43:36;;;;;;;1.83;1.73;;;;;;;12.74;50.98;96104.19;4897674;29;20202;-88
2022/05/04 13:46:03;;;;;;;1.90;1.80;;;;;;;11.82;50.66;95953.44;4879056;29;20598;-88
2022/05/04 13:48:30;;;;;;;2.00;1.90;;;;;;;19.10;50.76;97285.81;4898856;29;20227;-87
2022/05/04 13:53:42;;;;;;;1.70;1.60;;;;;;;14.70;50.80;96479.03;4891705;29;20253;-89
2022/05/04 13:56:09;;;;;;;2.07;1.97;;;;;;;11.19;50.88;95850.09;4884130;29;20203;-88
2022/05/04 13:58:36;;;;;;;2.00;1.90;;;;;;;19.05;50.94;97204.16;4891491;29;20652;-90
2022/05/04 14:01:02;;;;;;;1.90;1.80;;;;;;;16.65;51.00;96794.75;4914277;29;20233;-86
2022/05/04 14:03:29;;;;;;;2.00;1.80;;;;;;;18.94;51.12;97276.75;4883320;29;20201;-87
2022/05/04 14:22:00;;;;;;;1.63;1.53;;;;;;;15.15;51.40;96578.59;5125116;23;20205;-93
2022/05/04 14:24:27;;;;;;;1.90;1.80;;;;;;;16.58;51.33;96820.66;4929562;29;20178;-93
2022/05/04 14:27:08;;;;;;;1.77;1.63;;;;;;;16.20;51.47;96780.31;4916447;29;20170;-94
2022/05/04 14:35:47;;;;;;;1.80;1.70;;;;;;;14.15;51.03;96358.88;5023961;23;20213;-93
2022/05/04 14:50:46;;;;;;;1.97;1.87;;;;;;;19.67;51.04;97278.50;4963668;29;20145;-93
2022/05/04 14:58:16;;;;;;;2.10;2.00;;;;;;;19.67;51.13;97275.06;4888415;29;20171;-94
2022/05/04 15:36:08;;;;;;;1.63;1.53;;;;;;;17.51;50.53;96973.97;4982047;29;20233;-94
2022/05/04 17:40:18;;;;;;;1.70;1.60;;;;;;;16.01;51.03;96717.94;4104509;23;20268;-95
2022/05/04 17:42:45;;;;;;;1.70;1.60;;;;;;;17.82;51.16;97030.16;4902725;29;20194;-95
2022/05/04 17:47:54;;;;;;;1.70;1.60;;;;;;;15.41;51.29;96605.81;5426424;23;20210;-96
2022/05/04 17:50:34;;;;;;;1.60;1.50;;;;;;;15.83;51.21;96708.75;4904074;29;20197;-96
2022/05/04 17:53:01;;;;;;;1.93;1.40;;;;;;;14.17;51.24;96375.81;4898419;29;20205;-96
2022/05/04 17:55:44;;;;;;;1.30;1.30;;;;;;;16.26;51.10;96742.53;4916842;29;20161;-96
2022/05/04 17:58:25;;;;;;;1.40;1.40;;;;;;;15.32;51.64;96610.50;4912625;29;20250;-96
2022/05/04 18:01:05;;;;;;;1.57;1.47;;;;;;;15.73;50.61;96672.09;4903138;29;20194;-95
2022/05/04 18:03:59;;;;;;;1.33;1.30;;;;;;;14.68;50.99;96513.50;4879598;29;20159;-96
2022/05/04 18:06:26;;;;;;;1.43;1.33;;;;;;;14.91;50.82;96515.28;4891276;29;20179;-96
2022/05/04 18:09:04;;;;;;;1.50;1.40;;;;;;;15.71;51.33;96690.56;4878871;29;20199;-96
2022/05/04 18:11:45;;;;;;;1.83;1.73;;;;;;;16.20;51.16;96745.69;4879380;29;20167;-95
2022/05/04 18:14:12;;;;;;;1.40;1.30;;;;;;;15.34;51.71;96677.25;4875838;29;20179;-96
2022/05/04 18:16:52;;;;;;;1.40;1.30;;;;;;;15.46;51.06;96629.66;4879538;29;20166;-95
2022/05/04 18:19:33;;;;;;;1.60;1.50;;;;;;;15.97;51.04;96720.28;4877416;29;20183;-96
2022/05/04 18:22:33;;;;;;;1.60;1.50;;;;;;;13.42;50.09;96322.25;4877777;29;20163;-96
2022/05/04 18:26:07;;;;;;;1.53;1.43;;;;;;;19.69;51.04;97349.94;4887550;29;20156;-95
2022/05/04 18:29:35;;;;;;;1.60;1.50;;;;;;;19.68;51.14;97345.63;4832404;29;20166;-96
2022/05/04 18:32:37;;;;;;;1.57;1.47;;;;;;;19.68;51.12;97354.16;4831800;29;20197;-95
2022/05/04 18:39:59;;;;;;;1.60;1.50;;;;;;;19.68;51.19;97345.63;4832392;29;20178;-95
2022/05/04 18:48:02;;;;;;;1.60;1.50;;;;;;;12.55;50.70;96192.38;4814916;29;20188;-95
2022/05/04 19:03:25;;;;;;;2.07;1.50;;;;;;;19.64;51.35;97385.47;4795911;30;20221;-95
2022/05/04 19:11:13;;;;;;;1.20;1.20;;;;;;;19.65;51.19;97391.41;4777838;30;20220;-96
2022/05/04 19:30:51;;;;;;;1.60;1.50;;;;;;;19.65;51.30;97416.91;4639087;31;20213;-96
2022/05/04 20:13:35;;;;;;;1.80;1.60;;;;;;;19.70;51.56;97508.06;751671;23;20493;-94
2022/05/04 20:16:02;;;;;;;2.10;1.80;;;;;;;16.26;51.55;96940.25;5418077;23;20232;-94
2022/05/04 20:18:43;;;;;;;3.97;1.80;;;;;;;16.26;50.62;96936.03;4942815;23;20219;-93
2022/05/04 20:21:26;;;;;;;1.90;1.70;;;;;;;16.22;50.83;96941.81;4968469;24;20233;-94
2022/05/04 20:23:53;;;;;;;1.50;1.40;;;;;;;14.66;50.88;96697.19;4924848;28;20196;-93
2022/05/04 20:26:23;;;;;;;1.70;1.60;;;;;;;16.06;51.17;96865.09;4892326;29;20222;-93
2022/05/04 20:28:50;;;;;;;4.37;1.80;;;;;;;13.26;51.27;96405.63;4909178;23;20284;-92
2022/05/04 20:31:19;;;;;;;4.40;1.70;;;;;;;16.12;51.33;96860.25;4925720;29;20189;-93
2022/05/04 20:33:47;;;;;;;2.37;1.77;;;;;;;15.54;51.12;96770.94;4909891;29;20260;-91
2022/05/04 20:36:14;;;;;;;4.30;1.87;;;;;;;16.68;51.42;96948.72;4881313;29;20206;-94
2022/05/04 20:39:03;;;;;;;2.67;1.63;;;;;;;15.49;52.45;96738.63;4904921;29;20228;-94
2022/05/04 20:41:46;;;;;;;5.63;1.83;;;;;;;16.17;51.18;96902.72;4926124;23;20217;-93
2022/05/04 21:44:12;;;;;;;2.63;1.67;;;;;;;12.30;51.96;96297.91;4942184;29;20258;-93
2022/05/04 21:46:53;;;;;;;1.87;1.60;;;;;;;13.85;50.92;96512.53;4897844;29;20177;-94
2022/05/04 22:16:32;;;;;;;1.50;1.40;;;;;;;17.48;51.41;97150.81;5100388;23;20201;-95
2022/05/04 22:19:19;;;;;;;2.23;1.80;;;;;;;14.76;51.17;96678.19;4911395;29;20210;-94
2022/05/04 22:22:07;;;;;;;2.70;1.70;;;;;;;17.34;51.35;97147.69;4913544;29;20170;-93
2022/05/04 22:24:42;;;;;;;1.83;1.60;;;;;;;16.08;51.58;96947.97;4898420;29;20202;-95
2022/05/04 22:37:53;;;;;;;1.53;1.43;;;;;;;17.53;51.81;97223.84;4922711;29;20190;-95
2022/05/04 22:40:36;;;;;;;1.70;1.60;;;;;;;15.95;51.27;96968.53;4884851;29;20182;-94
2022/05/04 22:43:14;;;;;;;2.13;1.57;;;;;;;15.24;51.34;96830.38;4894744;29;20161;-95
2022/05/04 22:45:52;;;;;;;1.47;1.37;;;;;;;14.95;51.50;96775.13;4882777;29;20198;-95
2022/05/04 22:48:39;;;;;;;2.60;1.50;;;;;;;15.04;51.36;96790.69;4884262;29;20170;-95
2022/05/04 23:21:18;;;;;;;1.80;1.70;;;;;;;13.36;51.03;96541.47;4960055;28;20204;-93
2022/05/04 23:56:14;;;;;;;1.60;1.50;;;;;;;14.60;51.30;96712.09;4054650;27;20263;-94
2022/05/04 23:58:55;;;;;;;1.63;1.40;;;;;;;14.61;51.07;96760.19;4917315;29;20201;-95
